sensor_id;sensor_type;location;lat;lon;timestamp;pressure;altitude;pressure_sealevel;temperature;humidity
70921;BME280;58572;48.110;19.838;2022-12-18T00:02:04;98958.75;;;1.60;75.79
70921;BME280;58572;48.110;19.838;2022-12-18T00:04:31;98968.16;;;1.90;75.87
70921;BME280;58572;48.110;19.838;2022-12-18T00:06:58;98975.06;;;1.65;75.86
70921;BME280;58572;48.110;19.838;2022-12-18T00:09:25;98980.53;;;1.98;75.58
70921;BME280;58572;48.110;19.838;2022-12-18T00:11:52;98983.84;;;2.00;75.21
70921;BME280;58572;48.110;19.838;2022-12-18T00:14:20;98985.44;;;1.81;75.53
70921;BME280;58572;48.110;19.838;2022-12-18T00:16:47;98993.66;;;1.73;75.95
70921;BME280;58572;48.110;19.838;2022-12-18T00:19:14;98995.31;;;1.74;76.32
70921;BME280;58572;48.110;19.838;2022-12-18T00:21:44;99009.63;;;1.53;76.27
70921;BME280;58572;48.110;19.838;2022-12-18T00:24:11;98881.69;;;0.52;76.70
70921;BME280;58572;48.110;19.838;2022-12-18T00:26:39;99015.25;;;1.65;76.37
70921;BME280;58572;48.110;19.838;2022-12-18T00:29:07;98970.28;;;1.54;75.97
70921;BME280;58572;48.110;19.838;2022-12-18T00:31:37;99013.75;;;1.97;75.34
70921;BME280;58572;48.110;19.838;2022-12-18T00:34:04;98913.34;;;1.04;76.03
70921;BME280;58572;48.110;19.838;2022-12-18T00:36:33;99027.53;;;1.87;75.58
70921;BME280;58572;48.110;19.838;2022-12-18T00:39:02;99030.00;;;1.82;75.35
70921;BME280;58572;48.110;19.838;2022-12-18T00:41:30;98937.13;;;1.20;75.03
70921;BME280;58572;48.110;19.838;2022-12-18T00:44:16;98936.88;;;1.15;75.34
70921;BME280;58572;48.110;19.838;2022-12-18T00:46:45;99035.13;;;1.77;75.55
70921;BME280;58572;48.110;19.838;2022-12-18T00:49:13;99046.44;;;1.73;76.08
70921;BME280;58572;48.110;19.838;2022-12-18T00:51:40;99046.00;;;1.69;76.13
70921;BME280;58572;48.110;19.838;2022-12-18T00:54:07;99052.47;;;1.47;76.82
70921;BME280;58572;48.110;19.838;2022-12-18T00:56:35;99047.59;;;1.57;76.35
70921;BME280;58572;48.110;19.838;2022-12-18T00:59:02;98985.25;;;1.42;74.33
70921;BME280;58572;48.110;19.838;2022-12-18T01:01:29;99050.25;;;1.91;74.94
70921;BME280;58572;48.110;19.838;2022-12-18T01:03:59;99054.66;;;1.37;75.75
70921;BME280;58572;48.110;19.838;2022-12-18T01:06:26;98911.53;;;0.55;75.84
70921;BME280;58572;48.110;19.838;2022-12-18T01:08:53;99065.09;;;1.25;77.92
70921;BME280;58572;48.110;19.838;2022-12-18T01:11:20;98763.16;;;-1.41;76.94
70921;BME280;58572;48.110;19.838;2022-12-18T01:13:47;99068.63;;;1.60;76.79
70921;BME280;58572;48.110;19.838;2022-12-18T01:16:16;99072.19;;;1.67;76.08
70921;BME280;58572;48.110;19.838;2022-12-18T01:18:43;98990.22;;;1.10;76.44
70921;BME280;58572;48.110;19.838;2022-12-18T01:21:14;99071.25;;;1.88;75.61
70921;BME280;58572;48.110;19.838;2022-12-18T01:23:45;99076.25;;;1.98;75.30
70921;BME280;58572;48.110;19.838;2022-12-18T01:26:14;99077.28;;;1.62;76.34
70921;BME280;58572;48.110;19.838;2022-12-18T01:28:41;99025.63;;;1.40;75.75
70921;BME280;58572;48.110;19.838;2022-12-18T01:31:14;99085.28;;;1.90;75.40
70921;BME280;58572;48.110;19.838;2022-12-18T01:33:41;99086.06;;;1.77;75.65
70921;BME280;58572;48.110;19.838;2022-12-18T01:36:16;99091.03;;;1.80;75.36
70921;BME280;58572;48.110;19.838;2022-12-18T01:38:43;99087.66;;;2.06;75.18
70921;BME280;58572;48.110;19.838;2022-12-18T01:41:10;98970.63;;;1.10;75.48
70921;BME280;58572;48.110;19.838;2022-12-18T01:43:42;99087.78;;;1.29;77.41
70921;BME280;58572;48.110;19.838;2022-12-18T01:46:09;99088.72;;;1.43;77.03
70921;BME280;58572;48.110;19.838;2022-12-18T01:48:36;99083.72;;;1.68;76.17
70921;BME280;58572;48.110;19.838;2022-12-18T01:51:05;99102.13;;;1.77;75.59
70921;BME280;58572;48.110;19.838;2022-12-18T01:53:34;99098.91;;;1.88;75.58
70921;BME280;58572;48.110;19.838;2022-12-18T01:56:03;99099.38;;;1.99;75.17
70921;BME280;58572;48.110;19.838;2022-12-18T01:58:35;99101.50;;;2.10;74.24
70921;BME280;58572;48.110;19.838;2022-12-18T02:01:05;99101.66;;;2.02;74.56
70921;BME280;58572;48.110;19.838;2022-12-18T02:03:32;99102.38;;;1.82;76.18
70921;BME280;58572;48.110;19.838;2022-12-18T02:06:05;99047.97;;;1.54;74.81
70921;BME280;58572;48.110;19.838;2022-12-18T02:08:40;99110.88;;;1.92;75.41
70921;BME280;58572;48.110;19.838;2022-12-18T02:11:14;99106.97;;;1.95;75.34
70921;BME280;58572;48.110;19.838;2022-12-18T02:13:49;99123.06;;;1.95;75.34
70921;BME280;58572;48.110;19.838;2022-12-18T02:16:24;99120.03;;;2.05;75.26
70921;BME280;58572;48.110;19.838;2022-12-18T02:18:59;99127.84;;;2.00;75.25
70921;BME280;58572;48.110;19.838;2022-12-18T02:21:34;99124.63;;;2.11;74.46
70921;BME280;58572;48.110;19.838;2022-12-18T02:24:18;99124.91;;;1.95;75.20
70921;BME280;58572;48.110;19.838;2022-12-18T02:26:55;98946.72;;;0.80;75.38
70921;BME280;58572;48.110;19.838;2022-12-18T02:29:25;99127.59;;;1.95;75.54
70921;BME280;58572;48.110;19.838;2022-12-18T02:31:56;99129.38;;;1.81;75.83
70921;BME280;58572;48.110;19.838;2022-12-18T02:34:28;99135.19;;;1.84;75.41
70921;BME280;58572;48.110;19.838;2022-12-18T02:36:58;99078.38;;;1.40;75.37
70921;BME280;58572;48.110;19.838;2022-12-18T02:39:27;99093.88;;;1.44;76.03
70921;BME280;58572;48.110;19.838;2022-12-18T02:41:57;99142.28;;;1.99;75.30
70921;BME280;58572;48.110;19.838;2022-12-18T02:44:24;99076.44;;;1.55;75.09
70921;BME280;58572;48.110;19.838;2022-12-18T02:46:52;99144.09;;;1.91;75.64
70921;BME280;58572;48.110;19.838;2022-12-18T02:49:31;99151.69;;;1.88;75.31
70921;BME280;58572;48.110;19.838;2022-12-18T02:52:07;99067.66;;;1.40;75.51
70921;BME280;58572;48.110;19.838;2022-12-18T02:54:48;99149.69;;;1.97;75.14
70921;BME280;58572;48.110;19.838;2022-12-18T02:57:22;99158.88;;;2.09;74.92
70921;BME280;58572;48.110;19.838;2022-12-18T02:59:57;99159.50;;;2.11;74.18
70921;BME280;58572;48.110;19.838;2022-12-18T03:02:30;99163.19;;;1.82;75.62
70921;BME280;58572;48.110;19.838;2022-12-18T03:05:07;99167.06;;;2.07;75.06
70921;BME280;58572;48.110;19.838;2022-12-18T03:07:38;99169.97;;;2.06;75.03
70921;BME280;58572;48.110;19.838;2022-12-18T03:10:09;98943.72;;;0.41;75.79
70921;BME280;58572;48.110;19.838;2022-12-18T03:12:43;99181.38;;;1.86;75.70
70921;BME280;58572;48.110;19.838;2022-12-18T03:15:16;99059.00;;;0.88;76.47
70921;BME280;58572;48.110;19.838;2022-12-18T03:17:47;99177.97;;;1.71;76.42
70921;BME280;58572;48.110;19.838;2022-12-18T03:20:19;99135.91;;;1.44;76.27
70921;BME280;58572;48.110;19.838;2022-12-18T03:22:50;99175.81;;;1.60;76.31
70921;BME280;58572;48.110;19.838;2022-12-18T03:25:19;99042.84;;;1.03;75.52
70921;BME280;58572;48.110;19.838;2022-12-18T03:27:50;99189.97;;;1.75;75.77
70921;BME280;58572;48.110;19.838;2022-12-18T03:30:19;99189.44;;;1.86;75.38
70921;BME280;58572;48.110;19.838;2022-12-18T03:32:48;99188.09;;;2.04;74.67
70921;BME280;58572;48.110;19.838;2022-12-18T03:35:21;99169.69;;;1.66;74.98
70921;BME280;58572;48.110;19.838;2022-12-18T03:37:49;99198.94;;;1.89;75.63
70921;BME280;58572;48.110;19.838;2022-12-18T03:40:16;99208.19;;;1.86;75.75
70921;BME280;58572;48.110;19.838;2022-12-18T03:42:48;99196.94;;;1.98;75.15
70921;BME280;58572;48.110;19.838;2022-12-18T03:45:22;99087.97;;;1.27;75.00
70921;BME280;58572;48.110;19.838;2022-12-18T03:47:58;99213.56;;;1.86;75.43
70921;BME280;58572;48.110;19.838;2022-12-18T03:50:37;99217.34;;;1.99;74.89
70921;BME280;58572;48.110;19.838;2022-12-18T03:53:23;99219.22;;;1.70;76.44
70921;BME280;58572;48.110;19.838;2022-12-18T03:55:52;99223.41;;;1.79;75.70
70921;BME280;58572;48.110;19.838;2022-12-18T03:58:23;99221.63;;;1.65;75.90
70921;BME280;58572;48.110;19.838;2022-12-18T04:00:52;99152.88;;;1.51;74.56
70921;BME280;58572;48.110;19.838;2022-12-18T04:03:23;99218.75;;;1.67;76.13
70921;BME280;58572;48.110;19.838;2022-12-18T04:05:51;99230.03;;;1.83;nan
70921;BME280;58572;48.110;19.838;2022-12-18T04:08:20;99110.94;;;0.94;75.30
70921;BME280;58572;48.110;19.838;2022-12-18T04:10:48;99232.78;;;1.90;75.27
70921;BME280;58572;48.110;19.838;2022-12-18T04:13:23;99227.66;;;1.95;74.89
70921;BME280;58572;48.110;19.838;2022-12-18T04:15:50;99233.28;;;1.79;75.71
70921;BME280;58572;48.110;19.838;2022-12-18T04:18:18;99238.91;;;1.84;75.71
70921;BME280;58572;48.110;19.838;2022-12-18T04:20:45;99248.31;;;2.01;75.07
70921;BME280;58572;48.110;19.838;2022-12-18T04:23:12;99255.44;;;1.87;75.47
70921;BME280;58572;48.110;19.838;2022-12-18T04:25:39;99250.84;;;1.81;75.03
70921;BME280;58572;48.110;19.838;2022-12-18T04:28:06;99258.50;;;1.84;75.39
70921;BME280;58572;48.110;19.838;2022-12-18T04:30:34;99259.91;;;1.80;75.44
70921;BME280;58572;48.110;19.838;2022-12-18T04:33:01;99262.59;;;1.80;75.21
70921;BME280;58572;48.110;19.838;2022-12-18T04:35:28;99266.81;;;1.68;75.86
70921;BME280;58572;48.110;19.838;2022-12-18T04:37:55;99276.47;;;1.63;76.36
70921;BME280;58572;48.110;19.838;2022-12-18T04:40:22;99260.31;;;1.56;76.18
70921;BME280;58572;48.110;19.838;2022-12-18T04:42:49;99263.81;;;1.78;75.38
70921;BME280;58572;48.110;19.838;2022-12-18T04:45:16;99269.13;;;1.71;75.73
70921;BME280;58572;48.110;19.838;2022-12-18T04:47:44;99273.97;;;1.40;76.26
70921;BME280;58572;48.110;19.838;2022-12-18T04:50:11;99273.25;;;1.31;76.75
70921;BME280;58572;48.110;19.838;2022-12-18T04:52:38;99275.09;;;1.31;77.62
70921;BME280;58572;48.110;19.838;2022-12-18T04:55:06;99286.69;;;1.16;77.48
70921;BME280;58572;48.110;19.838;2022-12-18T04:57:33;99293.44;;;1.48;76.84
70921;BME280;58572;48.110;19.838;2022-12-18T04:59:59;99173.25;;;0.67;76.48
70921;BME280;58572;48.110;19.838;2022-12-18T05:02:26;99297.28;;;1.24;76.49
70921;BME280;58572;48.110;19.838;2022-12-18T05:04:55;99298.97;;;1.47;76.00
70921;BME280;58572;48.110;19.838;2022-12-18T05:07:22;99309.69;;;1.47;76.25
70921;BME280;58572;48.110;19.838;2022-12-18T05:09:49;99309.94;;;1.52;76.15
70921;BME280;58572;48.110;19.838;2022-12-18T05:12:16;99318.97;;;1.30;76.19
70921;BME280;58572;48.110;19.838;2022-12-18T05:14:43;99317.53;;;1.12;77.31
70921;BME280;58572;48.110;19.838;2022-12-18T05:17:10;99326.31;;;1.21;76.97
70921;BME280;58572;48.110;19.838;2022-12-18T05:19:37;99324.81;;;1.18;77.03
70921;BME280;58572;48.110;19.838;2022-12-18T05:22:05;99319.75;;;1.23;76.98
70921;BME280;58572;48.110;19.838;2022-12-18T05:24:32;99328.78;;;1.22;77.09
70921;BME280;58572;48.110;19.838;2022-12-18T05:26:59;99334.53;;;1.19;77.36
70921;BME280;58572;48.110;19.838;2022-12-18T05:29:26;99187.59;;;0.29;77.07
70921;BME280;58572;48.110;19.838;2022-12-18T05:31:53;99336.63;;;1.24;76.82
70921;BME280;58572;48.110;19.838;2022-12-18T05:34:20;99334.16;;;1.22;77.00
70921;BME280;58572;48.110;19.838;2022-12-18T05:36:47;99340.81;;;1.12;77.29
70921;BME280;58572;48.110;19.838;2022-12-18T05:39:15;99345.78;;;1.15;77.29
70921;BME280;58572;48.110;19.838;2022-12-18T05:41:42;99308.75;;;1.04;76.50
70921;BME280;58572;48.110;19.838;2022-12-18T05:44:09;99350.22;;;1.22;76.63
70921;BME280;58572;48.110;19.838;2022-12-18T05:46:36;99352.25;;;1.20;76.89
70921;BME280;58572;48.110;19.838;2022-12-18T05:49:10;99367.94;;;1.23;76.65
70921;BME280;58572;48.110;19.838;2022-12-18T05:51:37;99364.63;;;1.21;76.65
70921;BME280;58572;48.110;19.838;2022-12-18T05:54:04;99367.03;;;1.16;77.07
70921;BME280;58572;48.110;19.838;2022-12-18T05:56:32;99366.03;;;1.17;77.11
70921;BME280;58572;48.110;19.838;2022-12-18T05:58:59;99365.75;;;1.12;76.65
70921;BME280;58572;48.110;19.838;2022-12-18T06:01:26;99312.56;;;0.80;76.17
70921;BME280;58572;48.110;19.838;2022-12-18T06:03:53;99371.09;;;1.12;76.60
70921;BME280;58572;48.110;19.838;2022-12-18T06:06:23;99374.59;;;1.27;75.71
70921;BME280;58572;48.110;19.838;2022-12-18T06:08:51;99382.63;;;0.98;76.84
70921;BME280;58572;48.110;19.838;2022-12-18T06:11:20;99268.47;;;0.17;77.19
70921;BME280;58572;48.110;19.838;2022-12-18T06:13:49;99394.91;;;0.78;77.55
70921;BME280;58572;48.110;19.838;2022-12-18T06:16:16;99332.66;;;0.31;77.50
70921;BME280;58572;48.110;19.838;2022-12-18T06:18:44;99316.09;;;0.51;76.25
70921;BME280;58572;48.110;19.838;2022-12-18T06:21:11;99397.13;;;0.74;77.38
70921;BME280;58572;48.110;19.838;2022-12-18T06:23:38;99402.91;;;0.63;77.63
70921;BME280;58572;48.110;19.838;2022-12-18T06:26:06;99377.41;;;0.38;77.68
70921;BME280;58572;48.110;19.838;2022-12-18T06:28:33;99241.00;;;-0.52;77.66
70921;BME280;58572;48.110;19.838;2022-12-18T06:31:02;99407.44;;;0.62;77.47
70921;BME280;58572;48.110;19.838;2022-12-18T06:33:30;99332.41;;;0.04;77.82
70921;BME280;58572;48.110;19.838;2022-12-18T06:36:00;99423.16;;;0.43;77.67
70921;BME280;58572;48.110;19.838;2022-12-18T06:38:27;99422.56;;;0.55;78.14
70921;BME280;58572;48.110;19.838;2022-12-18T06:40:54;99317.78;;;-0.09;77.30
70921;BME280;58572;48.110;19.838;2022-12-18T06:43:21;99427.31;;;-0.01;77.05
70921;BME280;58572;48.110;19.838;2022-12-18T06:45:48;99343.69;;;-0.32;78.17
70921;BME280;58572;48.110;19.838;2022-12-18T06:48:19;99427.47;;;0.06;78.07
70921;BME280;58572;48.110;19.838;2022-12-18T06:50:46;99443.16;;;-1.08;77.26
70921;BME280;58572;48.110;19.838;2022-12-18T06:53:13;99410.53;;;-0.40;76.25
70921;BME280;58572;48.110;19.838;2022-12-18T06:55:41;99368.03;;;-0.81;76.99
70921;BME280;58572;48.110;19.838;2022-12-18T06:58:08;99447.06;;;-0.72;76.62
70921;BME280;58572;48.110;19.838;2022-12-18T07:00:35;99342.06;;;-1.50;74.62
70921;BME280;58572;48.110;19.838;2022-12-18T07:03:02;99455.88;;;-1.35;77.65
70921;BME280;58572;48.110;19.838;2022-12-18T07:05:30;99458.22;;;-1.32;79.43
70921;BME280;58572;48.110;19.838;2022-12-18T07:07:57;99460.81;;;-0.13;78.15
70921;BME280;58572;48.110;19.838;2022-12-18T07:10:25;99364.72;;;-1.46;75.99
70921;BME280;58572;48.110;19.838;2022-12-18T07:12:52;99476.59;;;-0.65;79.07
70921;BME280;58572;48.110;19.838;2022-12-18T07:15:19;99478.25;;;-0.64;77.34
70921;BME280;58572;48.110;19.838;2022-12-18T07:17:46;99478.88;;;-0.15;78.05
70921;BME280;58572;48.110;19.838;2022-12-18T07:20:13;99482.25;;;-0.21;77.55
70921;BME280;58572;48.110;19.838;2022-12-18T07:22:41;99489.78;;;-0.24;77.69
70921;BME280;58572;48.110;19.838;2022-12-18T07:25:08;99485.59;;;-0.27;75.82
70921;BME280;58572;48.110;19.838;2022-12-18T07:27:35;99485.19;;;-0.47;77.81
70921;BME280;58572;48.110;19.838;2022-12-18T07:30:03;99496.03;;;0.22;76.75
70921;BME280;58572;48.110;19.838;2022-12-18T07:32:30;99492.72;;;0.43;76.12
70921;BME280;58572;48.110;19.838;2022-12-18T07:34:57;99506.28;;;0.41;75.86
70921;BME280;58572;48.110;19.838;2022-12-18T07:37:24;99367.44;;;-0.37;75.72
70921;BME280;58572;48.110;19.838;2022-12-18T07:39:52;99513.03;;;0.06;76.44
70921;BME280;58572;48.110;19.838;2022-12-18T07:42:19;99464.94;;;-0.33;77.18
70921;BME280;58572;48.110;19.838;2022-12-18T07:44:59;99511.84;;;0.09;76.38
70921;BME280;58572;48.110;19.838;2022-12-18T07:47:26;99516.53;;;0.07;76.20
70921;BME280;58572;48.110;19.838;2022-12-18T07:49:53;99517.56;;;0.28;76.30
70921;BME280;58572;48.110;19.838;2022-12-18T07:52:20;99291.28;;;-1.18;76.42
70921;BME280;58572;48.110;19.838;2022-12-18T07:54:47;99522.09;;;0.28;76.19
70921;BME280;58572;48.110;19.838;2022-12-18T07:57:17;99372.22;;;-0.55;75.72
70921;BME280;58572;48.110;19.838;2022-12-18T07:59:44;99536.00;;;0.46;75.75
70921;BME280;58572;48.110;19.838;2022-12-18T08:02:11;99534.16;;;0.47;76.00
70921;BME280;58572;48.110;19.838;2022-12-18T08:04:38;99535.88;;;0.62;75.60
70921;BME280;58572;48.110;19.838;2022-12-18T08:07:05;99538.19;;;0.66;75.32
70921;BME280;58572;48.110;19.838;2022-12-18T08:09:32;99543.97;;;0.54;75.47
70921;BME280;58572;48.110;19.838;2022-12-18T08:11:59;99545.22;;;0.44;76.03
70921;BME280;58572;48.110;19.838;2022-12-18T08:14:27;99552.53;;;0.50;76.00
70921;BME280;58572;48.110;19.838;2022-12-18T08:16:54;99551.50;;;0.51;75.60
70921;BME280;58572;48.110;19.838;2022-12-18T08:19:21;99559.53;;;0.51;75.59
70921;BME280;58572;48.110;19.838;2022-12-18T08:21:48;99568.81;;;0.40;75.93
70921;BME280;58572;48.110;19.838;2022-12-18T08:24:15;99553.47;;;0.34;75.97
70921;BME280;58572;48.110;19.838;2022-12-18T08:26:42;99555.38;;;0.48;75.34
70921;BME280;58572;48.110;19.838;2022-12-18T08:29:10;99556.47;;;0.62;75.16
70921;BME280;58572;48.110;19.838;2022-12-18T08:31:38;99563.00;;;0.59;75.03
70921;BME280;58572;48.110;19.838;2022-12-18T08:34:05;99569.06;;;0.53;75.49
70921;BME280;58572;48.110;19.838;2022-12-18T08:36:32;99576.31;;;0.68;75.32
70921;BME280;58572;48.110;19.838;2022-12-18T08:38:59;99571.19;;;0.81;74.80
70921;BME280;58572;48.110;19.838;2022-12-18T08:41:26;99576.38;;;0.82;74.68
70921;BME280;58572;48.110;19.838;2022-12-18T08:43:52;99579.13;;;0.74;74.66
70921;BME280;58572;48.110;19.838;2022-12-18T08:46:40;99584.75;;;0.56;75.03
70921;BME280;58572;48.110;19.838;2022-12-18T08:49:09;99587.59;;;0.55;nan
70921;BME280;58572;48.110;19.838;2022-12-18T08:51:36;99588.31;;;0.49;75.65
70921;BME280;58572;48.110;19.838;2022-12-18T08:54:04;99578.09;;;0.52;75.38
70921;BME280;58572;48.110;19.838;2022-12-18T08:56:31;99593.09;;;0.61;75.16
70921;BME280;58572;48.110;19.838;2022-12-18T08:58:58;99583.69;;;0.66;74.85
70921;BME280;58572;48.110;19.838;2022-12-18T09:01:25;99590.22;;;0.63;75.02
70921;BME280;58572;48.110;19.838;2022-12-18T09:03:54;99590.81;;;0.50;75.52
70921;BME280;58572;48.110;19.838;2022-12-18T09:06:22;99590.47;;;0.53;75.50
70921;BME280;58572;48.110;19.838;2022-12-18T09:08:49;99507.75;;;-0.10;75.50
70921;BME280;58572;48.110;19.838;2022-12-18T09:11:20;99598.09;;;0.03;75.39
70921;BME280;58572;48.110;19.838;2022-12-18T09:13:47;99598.84;;;0.50;75.94
70921;BME280;58572;48.110;19.838;2022-12-18T09:16:14;99565.38;;;0.77;73.76
70921;BME280;58572;48.110;19.838;2022-12-18T09:18:41;99600.22;;;0.92;73.85
70921;BME280;58572;48.110;19.838;2022-12-18T09:21:11;99601.78;;;1.09;73.57
70921;BME280;58572;48.110;19.838;2022-12-18T09:23:38;99575.84;;;0.87;73.13
70921;BME280;58572;48.110;19.838;2022-12-18T09:26:05;99609.44;;;0.89;74.14
70921;BME280;58572;48.110;19.838;2022-12-18T09:28:32;99616.28;;;0.92;74.21
70921;BME280;58572;48.110;19.838;2022-12-18T09:31:03;99611.03;;;0.99;74.47
70921;BME280;58572;48.110;19.838;2022-12-18T09:33:31;99621.31;;;1.18;73.88
70921;BME280;58572;48.110;19.838;2022-12-18T09:36:00;99630.31;;;1.40;72.71
70921;BME280;58572;48.110;19.838;2022-12-18T09:38:28;99620.78;;;1.37;72.71
70921;BME280;58572;48.110;19.838;2022-12-18T09:40:58;99611.53;;;1.25;73.35
70921;BME280;58572;48.110;19.838;2022-12-18T09:43:29;99509.69;;;0.73;72.71
70921;BME280;58572;48.110;19.838;2022-12-18T09:46:02;99610.38;;;1.57;72.06
70921;BME280;58572;48.110;19.838;2022-12-18T09:48:34;99606.31;;;1.61;71.83
70921;BME280;58572;48.110;19.838;2022-12-18T09:51:09;99617.72;;;1.03;74.14
70921;BME280;58572;48.110;19.838;2022-12-18T09:53:41;99567.81;;;0.64;74.44
70921;BME280;58572;48.110;19.838;2022-12-18T09:56:15;99611.28;;;0.89;75.24
70921;BME280;58572;48.110;19.838;2022-12-18T09:58:46;99614.91;;;0.50;75.92
70921;BME280;58572;48.110;19.838;2022-12-18T10:01:21;99604.50;;;0.55;76.28
70921;BME280;58572;48.110;19.838;2022-12-18T10:03:49;99606.75;;;0.67;76.31
70921;BME280;58572;48.110;19.838;2022-12-18T10:06:22;99609.53;;;1.04;74.73
70921;BME280;58572;48.110;19.838;2022-12-18T10:08:55;99605.53;;;1.23;73.74
70921;BME280;58572;48.110;19.838;2022-12-18T10:11:36;99434.97;;;-0.51;75.24
70921;BME280;58572;48.110;19.838;2022-12-18T10:14:14;99593.94;;;0.31;76.92
70921;BME280;58572;48.110;19.838;2022-12-18T10:16:56;99602.53;;;0.49;77.18
70921;BME280;58572;48.110;19.838;2022-12-18T10:19:45;99608.56;;;0.97;74.91
70921;BME280;58572;48.110;19.838;2022-12-18T10:22:25;99603.13;;;0.59;75.69
70921;BME280;58572;48.110;19.838;2022-12-18T10:25:04;99594.94;;;0.30;77.35
70921;BME280;58572;48.110;19.838;2022-12-18T10:27:33;99593.94;;;0.31;77.63
70921;BME280;58572;48.110;19.838;2022-12-18T10:30:04;99533.69;;;0.43;76.01
70921;BME280;58572;48.110;19.838;2022-12-18T10:32:39;99467.22;;;-0.22;76.63
70921;BME280;58572;48.110;19.838;2022-12-18T10:35:14;99595.88;;;0.45;77.13
70921;BME280;58572;48.110;19.838;2022-12-18T10:38:02;99592.09;;;-0.08;79.54
70921;BME280;58572;48.110;19.838;2022-12-18T10:40:31;99597.19;;;0.49;78.05
70921;BME280;58572;48.110;19.838;2022-12-18T10:43:05;99599.53;;;0.13;79.01
70921;BME280;58572;48.110;19.838;2022-12-18T10:45:32;99597.59;;;0.38;78.32
70921;BME280;58572;48.110;19.838;2022-12-18T10:48:00;99599.50;;;0.52;77.50
70921;BME280;58572;48.110;19.838;2022-12-18T10:50:30;99600.66;;;0.27;78.58
70921;BME280;58572;48.110;19.838;2022-12-18T10:52:59;99608.09;;;0.09;79.05
70921;BME280;58572;48.110;19.838;2022-12-18T10:55:32;99603.75;;;-0.01;79.95
70921;BME280;58572;48.110;19.838;2022-12-18T10:58:16;99539.63;;;-0.09;78.81
70921;BME280;58572;48.110;19.838;2022-12-18T11:01:02;99605.72;;;0.45;78.42
70921;BME280;58572;48.110;19.838;2022-12-18T11:03:32;99607.72;;;0.20;78.78
70921;BME280;58572;48.110;19.838;2022-12-18T11:06:03;99599.41;;;0.07;79.68
70921;BME280;58572;48.110;19.838;2022-12-18T11:08:31;99498.81;;;-0.73;79.86
70921;BME280;58572;48.110;19.838;2022-12-18T11:11:00;99598.59;;;0.06;79.96
70921;BME280;58572;48.110;19.838;2022-12-18T11:13:29;99431.84;;;-0.63;79.01
70921;BME280;58572;48.110;19.838;2022-12-18T11:15:56;99589.34;;;0.93;76.76
70921;BME280;58572;48.110;19.838;2022-12-18T11:18:27;99587.94;;;0.29;79.07
70921;BME280;58572;48.110;19.838;2022-12-18T11:20:55;99555.06;;;-0.19;80.37
70921;BME280;58572;48.110;19.838;2022-12-18T11:23:24;99586.63;;;0.25;79.61
70921;BME280;58572;48.110;19.838;2022-12-18T11:25:55;99585.44;;;-0.12;80.64
70921;BME280;58572;48.110;19.838;2022-12-18T11:28:29;99588.16;;;0.19;79.82
70921;BME280;58572;48.110;19.838;2022-12-18T11:31:15;99587.28;;;0.27;79.26
70921;BME280;58572;48.110;19.838;2022-12-18T11:33:46;99551.06;;;0.16;79.14
70921;BME280;58572;48.110;19.838;2022-12-18T11:36:17;99549.97;;;-0.06;79.67
70921;BME280;58572;48.110;19.838;2022-12-18T11:38:46;99582.66;;;0.13;80.18
70921;BME280;58572;48.110;19.838;2022-12-18T11:41:20;99540.00;;;-0.12;80.03
70921;BME280;58572;48.110;19.838;2022-12-18T11:43:52;99551.81;;;-0.06;80.25
70921;BME280;58572;48.110;19.838;2022-12-18T11:46:24;99573.38;;;0.01;80.26
70921;BME280;58572;48.110;19.838;2022-12-18T11:48:58;99580.03;;;0.05;80.15
70921;BME280;58572;48.110;19.838;2022-12-18T11:51:33;99570.56;;;0.25;79.36
70921;BME280;58572;48.110;19.838;2022-12-18T11:54:09;99574.03;;;-0.06;80.47
70921;BME280;58572;48.110;19.838;2022-12-18T11:56:43;99581.69;;;0.06;80.46
70921;BME280;58572;48.110;19.838;2022-12-18T11:59:24;99578.84;;;0.07;80.39
70921;BME280;58572;48.110;19.838;2022-12-18T12:01:58;99575.22;;;0.00;80.65
70921;BME280;58572;48.110;19.838;2022-12-18T12:04:48;99574.03;;;-0.06;81.12
70921;BME280;58572;48.110;19.838;2022-12-18T12:07:24;99571.06;;;-0.11;81.34
70921;BME280;58572;48.110;19.838;2022-12-18T12:10:02;99546.41;;;-0.29;80.92
70921;BME280;58572;48.110;19.838;2022-12-18T12:12:37;99579.06;;;-0.11;81.60
70921;BME280;58572;48.110;19.838;2022-12-18T12:15:22;99576.50;;;0.12;80.58
70921;BME280;58572;48.110;19.838;2022-12-18T12:17:55;99435.09;;;-0.76;80.58
70921;BME280;58572;48.110;19.838;2022-12-18T12:20:36;99578.41;;;-0.13;81.55
70921;BME280;58572;48.110;19.838;2022-12-18T12:23:19;99582.94;;;-0.13;81.56
70921;BME280;58572;48.110;19.838;2022-12-18T12:26:07;99581.75;;;-0.11;81.70
70921;BME280;58572;48.110;19.838;2022-12-18T12:28:44;99418.25;;;-0.84;80.53
70921;BME280;58572;48.110;19.838;2022-12-18T12:31:27;99582.19;;;0.09;80.78
70921;BME280;58572;48.110;19.838;2022-12-18T12:34:04;99579.78;;;0.22;79.25
70921;BME280;58572;48.110;19.838;2022-12-18T12:36:41;99576.97;;;0.16;80.93
70921;BME280;58572;48.110;19.838;2022-12-18T12:39:17;99584.66;;;0.19;80.15
70921;BME280;58572;48.110;19.838;2022-12-18T12:41:47;99586.50;;;0.18;79.91
70921;BME280;58572;48.110;19.838;2022-12-18T12:44:34;99592.56;;;-0.04;81.33
70921;BME280;58572;48.110;19.838;2022-12-18T12:47:12;99593.94;;;0.00;81.26
70921;BME280;58572;48.110;19.838;2022-12-18T12:49:42;99601.78;;;0.02;80.79
70921;BME280;58572;48.110;19.838;2022-12-18T12:52:15;99601.75;;;0.10;80.80
70921;BME280;58572;48.110;19.838;2022-12-18T12:54:48;99598.41;;;-0.01;80.88
70921;BME280;58572;48.110;19.838;2022-12-18T12:57:19;99530.00;;;-0.65;81.29
70921;BME280;58572;48.110;19.838;2022-12-18T12:59:57;99512.84;;;-0.79;81.41
70921;BME280;58572;48.110;19.838;2022-12-18T13:02:33;99626.44;;;0.20;80.65
70921;BME280;58572;48.110;19.838;2022-12-18T13:05:09;99617.66;;;0.34;79.84
70921;BME280;58572;48.110;19.838;2022-12-18T13:07:48;99624.69;;;-0.12;81.42
70921;BME280;58572;48.110;19.838;2022-12-18T13:10:32;99630.81;;;0.13;80.25
70921;BME280;58572;48.110;19.838;2022-12-18T13:13:01;99630.88;;;-0.12;80.99
70921;BME280;58572;48.110;19.838;2022-12-18T13:15:34;99634.16;;;0.07;80.09